sensor_id;sensor_type;location;lat;lon;timestamp;pressure;altitude;pressure_sealevel;temperature;humidity
67099;BME280;54288;53.046;5.668;2023-04-29T00:02:12;101568.84;;;8.97;100.00
67099;BME280;54288;53.046;5.668;2023-04-29T00:04:38;101568.00;;;8.96;100.00
67099;BME280;54288;53.046;5.668;2023-04-29T00:07:04;101574.94;;;8.97;100.00
67099;BME280;54288;53.046;5.668;2023-04-29T00:09:29;101573.19;;;8.99;100.00
67099;BME280;54288;53.046;5.668;2023-04-29T00:11:55;101570.59;;;8.99;100.00
67099;BME280;54288;53.046;5.668;2023-04-29T00:14:21;101574.06;;;9.00;100.00
67099;BME280;54288;53.046;5.668;2023-04-29T00:16:46;101574.97;;;8.99;100.00
67099;BME280;54288;53.046;5.668;2023-04-29T00:19:12;101577.56;;;8.99;100.00
67099;BME280;54288;53.046;5.668;2023-04-29T00:21:38;101581.91;;;9.00;100.00
67099;BME280;54288;53.046;5.668;2023-04-29T00:24:03;101587.13;;;9.00;100.00
67099;BME280;54288;53.046;5.668;2023-04-29T00:26:29;101582.75;;;9.00;100.00
67099;BME280;54288;53.046;5.668;2023-04-29T00:28:55;101594.97;;;8.97;100.00
67099;BME280;54288;53.046;5.668;2023-04-29T00:31:20;101590.63;;;8.97;100.00
67099;BME280;54288;53.046;5.668;2023-04-29T00:33:46;101589.75;;;8.94;100.00
67099;BME280;54288;53.046;5.668;2023-04-29T00:36:12;101605.44;;;8.94;100.00
67099;BME280;54288;53.046;5.668;2023-04-29T00:38:37;101615.88;;;8.91;100.00
67099;BME280;54288;53.046;5.668;2023-04-29T00:41:03;101615.03;;;8.90;100.00
67099;BME280;54288;53.046;5.668;2023-04-29T00:43:29;101621.97;;;8.90;100.00
67099;BME280;54288;53.046;5.668;2023-04-29T00:45:54;101622.84;;;8.89;100.00
67099;BME280;54288;53.046;5.668;2023-04-29T00:48:20;101620.22;;;8.87;100.00
67099;BME280;54288;53.046;5.668;2023-04-29T00:50:46;101616.75;;;8.87;100.00
67099;BME280;54288;53.046;5.668;2023-04-29T00:53:12;101631.56;;;8.88;100.00
67099;BME280;54288;53.046;5.668;2023-04-29T00:55:40;101637.66;;;8.85;100.00
67099;BME280;54288;53.046;5.668;2023-04-29T00:58:07;101643.72;;;8.84;100.00
67099;BME280;54288;53.046;5.668;2023-04-29T01:00:34;101638.53;;;8.81;100.00
67099;BME280;54288;53.046;5.668;2023-04-29T01:03:01;101646.34;;;8.78;100.00
67099;BME280;54288;53.046;5.668;2023-04-29T01:05:27;101644.63;;;8.77;100.00
67099;BME280;54288;53.046;5.668;2023-04-29T01:10:48;101652.44;;;8.71;100.00
67099;BME280;54288;53.046;5.668;2023-04-29T01:13:29;101657.66;;;8.71;100.00
67099;BME280;54288;53.046;5.668;2023-04-29T01:16:04;101654.19;;;8.69;100.00
67099;BME280;54288;53.046;5.668;2023-04-29T01:18:38;101662.03;;;8.69;100.00
67099;BME280;54288;53.046;5.668;2023-04-29T01:21:06;101667.25;;;8.69;100.00
67099;BME280;54288;53.046;5.668;2023-04-29T01:23:32;101669.84;;;8.68;100.00
67099;BME280;54288;53.046;5.668;2023-04-29T01:25:58;101673.34;;;8.68;100.00
67099;BME280;54288;53.046;5.668;2023-04-29T01:31:37;101670.72;;;8.71;100.00
67099;BME280;54288;53.046;5.668;2023-04-29T01:37:18;101681.19;;;8.74;100.00
67099;BME280;54288;53.046;5.668;2023-04-29T01:42:39;101693.34;;;8.74;100.00
67099;BME280;54288;53.046;5.668;2023-04-29T01:45:15;101691.63;;;8.74;100.00
67099;BME280;54288;53.046;5.668;2023-04-29T01:47:46;101699.44;;;8.76;100.00
67099;BME280;54288;53.046;5.668;2023-04-29T01:50:14;101703.81;;;8.78;100.00
67099;BME280;54288;53.046;5.668;2023-04-29T01:52:40;101704.69;;;8.79;100.00
67099;BME280;54288;53.046;5.668;2023-04-29T01:55:06;101703.81;;;8.78;100.00
67099;BME280;54288;53.046;5.668;2023-04-29T01:57:50;101706.44;;;8.77;100.00
67099;BME280;54288;53.046;5.668;2023-04-29T02:00:45;101704.66;;;8.77;100.00
67099;BME280;54288;53.046;5.668;2023-04-29T02:03:11;101715.13;;;8.79;100.00
67099;BME280;54288;53.046;5.668;2023-04-29T02:05:39;101719.47;;;8.80;100.00
67099;BME280;54288;53.046;5.668;2023-04-29T02:08:05;101725.59;;;8.82;100.00
67099;BME280;54288;53.046;5.668;2023-04-29T02:10:36;101729.91;;;8.84;100.00
67099;BME280;54288;53.046;5.668;2023-04-29T02:13:26;101731.69;;;8.85;100.00
67099;BME280;54288;53.046;5.668;2023-04-29T02:15:53;101729.06;;;8.85;100.00
67099;BME280;54288;53.046;5.668;2023-04-29T02:18:18;101729.06;;;8.84;100.00
67099;BME280;54288;53.046;5.668;2023-04-29T02:20:47;101743.88;;;8.86;100.00
67099;BME280;54288;53.046;5.668;2023-04-29T02:23:15;101737.75;;;8.86;100.00
67099;BME280;54288;53.046;5.668;2023-04-29T02:25:40;101741.25;;;8.85;100.00
67099;BME280;54288;53.046;5.668;2023-04-29T02:28:06;101742.97;;;8.86;100.00
67099;BME280;54288;53.046;5.668;2023-04-29T02:30:32;101752.56;;;8.84;100.00
67099;BME280;54288;53.046;5.668;2023-04-29T02:32:58;101757.78;;;8.82;100.00
67099;BME280;54288;53.046;5.668;2023-04-29T02:35:23;101754.31;;;8.82;100.00
67099;BME280;54288;53.046;5.668;2023-04-29T02:37:49;101756.03;;;8.84;100.00
67099;BME280;54288;53.046;5.668;2023-04-29T02:40:15;101755.16;;;8.82;100.00
67099;BME280;54288;53.046;5.668;2023-04-29T02:42:40;101758.66;;;8.81;100.00
67099;BME280;54288;53.046;5.668;2023-04-29T02:45:07;101761.25;;;8.78;100.00
67099;BME280;54288;53.046;5.668;2023-04-29T02:47:32;101762.13;;;8.77;100.00
67099;BME280;54288;53.046;5.668;2023-04-29T02:49:58;101756.03;;;8.75;100.00
67099;BME280;54288;53.046;5.668;2023-04-29T02:52:24;101767.34;;;8.74;100.00
67099;BME280;54288;53.046;5.668;2023-04-29T02:54:50;101777.81;;;8.74;100.00
67099;BME280;54288;53.046;5.668;2023-04-29T02:57:15;101772.56;;;8.73;100.00
67099;BME280;54288;53.046;5.668;2023-04-29T02:59:41;101783.00;;;8.70;100.00
67099;BME280;54288;53.046;5.668;2023-04-29T03:02:07;101779.53;;;8.71;100.00
67099;BME280;54288;53.046;5.668;2023-04-29T03:04:33;101782.16;;;8.69;100.00
67099;BME280;54288;53.046;5.668;2023-04-29T03:06:59;101787.34;;;8.66;100.00
67099;BME280;54288;53.046;5.668;2023-04-29T03:09:26;101788.22;;;8.65;100.00
67099;BME280;54288;53.046;5.668;2023-04-29T03:11:52;101793.44;;;8.64;100.00
67099;BME280;54288;53.046;5.668;2023-04-29T03:14:18;101801.25;;;8.64;100.00
67099;BME280;54288;53.046;5.668;2023-04-29T03:16:43;101799.53;;;8.64;100.00
67099;BME280;54288;53.046;5.668;2023-04-29T03:19:09;101800.41;;;8.63;100.00
67099;BME280;54288;53.046;5.668;2023-04-29T03:21:35;101802.13;;;8.63;100.00
67099;BME280;54288;53.046;5.668;2023-04-29T03:24:01;101804.75;;;8.63;100.00
67099;BME280;54288;53.046;5.668;2023-04-29T03:26:32;101810.84;;;8.63;100.00
67099;BME280;54288;53.046;5.668;2023-04-29T03:28:57;101803.88;;;8.64;100.00
67099;BME280;54288;53.046;5.668;2023-04-29T03:31:25;101809.09;;;8.59;100.00
67099;BME280;54288;53.046;5.668;2023-04-29T03:33:51;101801.28;;;8.62;100.00
67099;BME280;54288;53.046;5.668;2023-04-29T03:36:18;101808.25;;;8.63;100.00
67099;BME280;54288;53.046;5.668;2023-04-29T03:38:58;101809.97;;;8.63;100.00
67099;BME280;54288;53.046;5.668;2023-04-29T03:41:24;101809.97;;;8.61;100.00
67099;BME280;54288;53.046;5.668;2023-04-29T03:43:51;101822.16;;;8.62;100.00
67099;BME280;54288;53.046;5.668;2023-04-29T03:46:17;101823.03;;;8.63;100.00
67099;BME280;54288;53.046;5.668;2023-04-29T03:48:43;101820.41;;;8.64;100.00
67099;BME280;54288;53.046;5.668;2023-04-29T03:51:09;101828.25;;;8.66;100.00
67099;BME280;54288;53.046;5.668;2023-04-29T03:53:35;101830.00;;;8.65;100.00
67099;BME280;54288;53.046;5.668;2023-04-29T03:56:03;101825.66;;;8.64;100.00
67099;BME280;54288;53.046;5.668;2023-04-29T03:58:29;101827.38;;;8.62;100.00
67099;BME280;54288;53.046;5.668;2023-04-29T04:00:55;101830.00;;;8.61;100.00
67099;BME280;54288;53.046;5.668;2023-04-29T04:03:26;101841.28;;;8.63;100.00
67099;BME280;54288;53.046;5.668;2023-04-29T04:05:55;101842.16;;;8.62;100.00
67099;BME280;54288;53.046;5.668;2023-04-29T04:08:20;101843.03;;;8.61;100.00
67099;BME280;54288;53.046;5.668;2023-04-29T04:11:05;101847.38;;;8.60;100.00
67099;BME280;54288;53.046;5.668;2023-04-29T04:13:35;101845.66;;;8.61;100.00
67099;BME280;54288;53.046;5.668;2023-04-29T04:16:01;101851.72;;;8.58;100.00
67099;BME280;54288;53.046;5.668;2023-04-29T04:18:29;101859.56;;;8.58;100.00
67099;BME280;54288;53.046;5.668;2023-04-29T04:20:55;101859.56;;;8.57;100.00
67099;BME280;54288;53.046;5.668;2023-04-29T04:23:23;101871.72;;;8.58;100.00
67099;BME280;54288;53.046;5.668;2023-04-29T04:25:49;101868.25;;;8.56;100.00
67099;BME280;54288;53.046;5.668;2023-04-29T04:28:35;101869.16;;;8.56;100.00
67099;BME280;54288;53.046;5.668;2023-04-29T04:31:16;101865.63;;;8.54;100.00
67099;BME280;54288;53.046;5.668;2023-04-29T04:33:42;101873.47;;;8.56;100.00
67099;BME280;54288;53.046;5.668;2023-04-29T04:36:07;101876.97;;;8.56;100.00
67099;BME280;54288;53.046;5.668;2023-04-29T04:38:33;101876.06;;;8.54;100.00
67099;BME280;54288;53.046;5.668;2023-04-29T04:41:05;101880.44;;;8.54;100.00
67099;BME280;54288;53.046;5.668;2023-04-29T04:43:37;101882.16;;;8.50;100.00
67099;BME280;54288;53.046;5.668;2023-04-29T04:46:12;101877.78;;;8.45;100.00
67099;BME280;54288;53.046;5.668;2023-04-29T04:48:43;101880.38;;;8.43;100.00
67099;BME280;54288;53.046;5.668;2023-04-29T04:51:12;101892.53;;;8.35;100.00
67099;BME280;54288;53.046;5.668;2023-04-29T04:53:39;101887.28;;;8.29;100.00
67099;BME280;54288;53.046;5.668;2023-04-29T04:56:09;101894.19;;;8.23;100.00
67099;BME280;54288;53.046;5.668;2023-04-29T04:58:35;101900.25;;;8.20;100.00
67099;BME280;54288;53.046;5.668;2023-04-29T05:01:02;101904.53;;;8.15;100.00
67099;BME280;54288;53.046;5.668;2023-04-29T05:03:28;101902.41;;;9.20;100.00
67099;BME280;54288;53.046;5.668;2023-04-29T05:05:58;101894.25;;;11.06;100.00
67099;BME280;54288;53.046;5.668;2023-04-29T05:08:25;101900.97;;;12.39;100.00
67099;BME280;54288;53.046;5.668;2023-04-29T05:10:52;101899.41;;;13.58;98.60
67099;BME280;54288;53.046;5.668;2023-04-29T05:13:20;101903.38;;;14.33;91.73
67099;BME280;54288;53.046;5.668;2023-04-29T05:15:45;101901.03;;;13.65;89.62
67099;BME280;54288;53.046;5.668;2023-04-29T05:18:12;101916.03;;;12.24;98.71
67099;BME280;54288;53.046;5.668;2023-04-29T05:20:41;101910.09;;;12.84;100.00
67099;BME280;54288;53.046;5.668;2023-04-29T05:23:07;101916.16;;;14.04;92.39
67099;BME280;54288;53.046;5.668;2023-04-29T05:25:37;101904.03;;;14.86;85.46
67099;BME280;54288;53.046;5.668;2023-04-29T05:28:04;101913.16;;;15.86;83.67
67099;BME280;54288;53.046;5.668;2023-04-29T05:30:32;101909.63;;;16.52;77.49
67099;BME280;54288;53.046;5.668;2023-04-29T05:32:58;101905.69;;;16.67;75.01
67099;BME280;54288;53.046;5.668;2023-04-29T05:35:24;101918.50;;;16.50;76.08
67099;BME280;54288;53.046;5.668;2023-04-29T05:37:50;101916.25;;;15.68;80.14
67099;BME280;54288;53.046;5.668;2023-04-29T05:40:23;101918.47;;;15.49;81.10
67099;BME280;54288;53.046;5.668;2023-04-29T05:42:51;101920.22;;;15.49;81.70
67099;BME280;54288;53.046;5.668;2023-04-29T05:45:17;101926.34;;;15.51;82.02
67099;BME280;54288;53.046;5.668;2023-04-29T05:47:43;101918.44;;;15.51;82.87
67099;BME280;54288;53.046;5.668;2023-04-29T05:50:09;101932.78;;;15.76;85.13
67099;BME280;54288;53.046;5.668;2023-04-29T05:52:37;101935.81;;;15.96;82.20
67099;BME280;54288;53.046;5.668;2023-04-29T05:55:02;101932.50;;;16.21;80.19
67099;BME280;54288;53.046;5.668;2023-04-29T05:57:28;101941.16;;;16.26;82.09
67099;BME280;54288;53.046;5.668;2023-04-29T05:59:54;101941.81;;;15.66;78.44
67099;BME280;54288;53.046;5.668;2023-04-29T06:02:21;101949.22;;;15.87;87.24
67099;BME280;54288;53.046;5.668;2023-04-29T06:04:47;101951.25;;;16.11;85.14
67099;BME280;54288;53.046;5.668;2023-04-29T06:07:34;101955.53;;;15.45;86.62
67099;BME280;54288;53.046;5.668;2023-04-29T06:10:09;101964.31;;;16.17;83.76
67099;BME280;54288;53.046;5.668;2023-04-29T06:12:35;101962.19;;;16.31;83.27
67099;BME280;54288;53.046;5.668;2023-04-29T06:15:01;101968.53;;;15.89;88.52
67099;BME280;54288;53.046;5.668;2023-04-29T06:17:27;101964.66;;;15.68;84.85
67099;BME280;54288;53.046;5.668;2023-04-29T06:19:56;101973.31;;;16.10;80.97
67099;BME280;54288;53.046;5.668;2023-04-29T06:22:22;101972.75;;;15.21;84.02
67099;BME280;54288;53.046;5.668;2023-04-29T06:24:51;101973.00;;;14.67;87.75
67099;BME280;54288;53.046;5.668;2023-04-29T06:27:43;101974.72;;;15.10;94.80
67099;BME280;54288;53.046;5.668;2023-04-29T06:30:09;101979.31;;;14.58;84.24
67099;BME280;54288;53.046;5.668;2023-04-29T06:32:38;101976.97;;;13.89;87.17
67099;BME280;54288;53.046;5.668;2023-04-29T06:35:06;101980.44;;;14.45;91.41
67099;BME280;54288;53.046;5.668;2023-04-29T06:37:49;101984.75;;;14.95;86.58
67099;BME280;54288;53.046;5.668;2023-04-29T06:40:28;101989.63;;;14.69;85.94
67099;BME280;54288;53.046;5.668;2023-04-29T06:43:09;101991.47;;;13.61;90.08
67099;BME280;54288;53.046;5.668;2023-04-29T06:45:48;101997.34;;;13.78;91.00
67099;BME280;54288;53.046;5.668;2023-04-29T06:48:25;102006.13;;;13.77;92.97
67099;BME280;54288;53.046;5.668;2023-04-29T06:50:53;102013.22;;;13.73;89.03
67099;BME280;54288;53.046;5.668;2023-04-29T06:53:20;102016.25;;;14.04;91.41
67099;BME280;54288;53.046;5.668;2023-04-29T06:55:46;102024.03;;;14.63;87.61
67099;BME280;54288;53.046;5.668;2023-04-29T06:58:16;102030.75;;;14.32;86.28
67099;BME280;54288;53.046;5.668;2023-04-29T07:00:47;102035.72;;;13.94;84.49
67099;BME280;54288;53.046;5.668;2023-04-29T07:03:14;102034.28;;;13.75;82.79
67099;BME280;54288;53.046;5.668;2023-04-29T07:05:40;102035.91;;;13.82;84.08
67099;BME280;54288;53.046;5.668;2023-04-29T07:08:08;102035.59;;;14.01;82.22
67099;BME280;54288;53.046;5.668;2023-04-29T07:10:34;102034.53;;;14.13;82.88
67099;BME280;54288;53.046;5.668;2023-04-29T07:13:00;102043.63;;;13.94;83.25
67099;BME280;54288;53.046;5.668;2023-04-29T07:15:27;102038.81;;;14.23;86.51
67099;BME280;54288;53.046;5.668;2023-04-29T07:17:53;102047.75;;;14.64;87.79
67099;BME280;54288;53.046;5.668;2023-04-29T07:20:19;102043.88;;;14.35;81.79
67099;BME280;54288;53.046;5.668;2023-04-29T07:22:45;102052.03;;;14.17;81.14
67099;BME280;54288;53.046;5.668;2023-04-29T07:25:11;102048.06;;;14.46;82.69
67099;BME280;54288;53.046;5.668;2023-04-29T07:27:37;102056.41;;;14.18;82.14
67099;BME280;54288;53.046;5.668;2023-04-29T07:30:03;102063.56;;;14.10;81.03
67099;BME280;54288;53.046;5.668;2023-04-29T07:32:30;102063.41;;;14.22;80.72
67099;BME280;54288;53.046;5.668;2023-04-29T07:34:58;102063.56;;;14.11;80.50
67099;BME280;54288;53.046;5.668;2023-04-29T07:37:24;102067.00;;;14.15;81.49
67099;BME280;54288;53.046;5.668;2023-04-29T07:39:50;102073.19;;;14.67;82.64
67099;BME280;54288;53.046;5.668;2023-04-29T07:42:16;102075.81;;;14.67;80.83
67099;BME280;54288;53.046;5.668;2023-04-29T07:44:42;102078.34;;;14.74;81.50
67099;BME280;54288;53.046;5.668;2023-04-29T07:47:10;102081.06;;;14.68;76.56
67099;BME280;54288;53.046;5.668;2023-04-29T07:49:35;102078.56;;;14.05;73.95
67099;BME280;54288;53.046;5.668;2023-04-29T07:52:03;102080.28;;;14.07;76.05
67099;BME280;54288;53.046;5.668;2023-04-29T07:54:29;102082.56;;;14.31;76.19
67099;BME280;54288;53.046;5.668;2023-04-29T07:56:57;102086.91;;;14.37;72.07
67099;BME280;54288;53.046;5.668;2023-04-29T07:59:22;102080.56;;;14.47;73.29
67099;BME280;54288;53.046;5.668;2023-04-29T08:01:48;102096.78;;;14.76;71.71
67099;BME280;54288;53.046;5.668;2023-04-29T08:04:14;102092.16;;;14.87;71.99
67099;BME280;54288;53.046;5.668;2023-04-29T08:06:51;102094.38;;;15.09;74.40
67099;BME280;54288;53.046;5.668;2023-04-29T08:09:17;102103.69;;;15.71;68.62
67099;BME280;54288;53.046;5.668;2023-04-29T08:11:42;102094.28;;;15.14;68.19
67099;BME280;54288;53.046;5.668;2023-04-29T08:14:11;102100.56;;;15.08;68.86
67099;BME280;54288;53.046;5.668;2023-04-29T08:16:37;102107.00;;;15.38;68.89
67099;BME280;54288;53.046;5.668;2023-04-29T08:19:03;102110.88;;;15.64;67.52
67099;BME280;54288;53.046;5.668;2023-04-29T08:21:28;102116.25;;;15.60;69.29
67099;BME280;54288;53.046;5.668;2023-04-29T08:23:56;102119.38;;;15.36;66.94
67099;BME280;54288;53.046;5.668;2023-04-29T08:26:22;102112.94;;;15.05;68.26
67099;BME280;54288;53.046;5.668;2023-04-29T08:28:48;102109.50;;;15.45;69.23
67099;BME280;54288;53.046;5.668;2023-04-29T08:31:19;102104.19;;;15.88;72.71
67099;BME280;54288;53.046;5.668;2023-04-29T08:33:45;102116.72;;;15.80;68.35
67099;BME280;54288;53.046;5.668;2023-04-29T08:36:11;102115.78;;;15.82;66.29
67099;BME280;54288;53.046;5.668;2023-04-29T08:38:37;102127.72;;;15.59;65.50
67099;BME280;54288;53.046;5.668;2023-04-29T08:41:02;102123.25;;;16.02;64.38
67099;BME280;54288;53.046;5.668;2023-04-29T08:43:29;102134.16;;;15.87;66.35
67099;BME280;54288;53.046;5.668;2023-04-29T08:45:57;102128.28;;;16.14;65.99
67099;BME280;54288;53.046;5.668;2023-04-29T08:48:24;102142.63;;;16.42;62.97
67099;BME280;54288;53.046;5.668;2023-04-29T08:50:51;102132.94;;;16.01;64.07
67099;BME280;54288;53.046;5.668;2023-04-29T08:54:01;102125.66;;;16.12;61.98
67099;BME280;54288;53.046;5.668;2023-04-29T08:56:30;102136.84;;;16.23;66.73
67099;BME280;54288;53.046;5.668;2023-04-29T08:58:56;102138.16;;;16.79;67.60
67099;BME280;54288;53.046;5.668;2023-04-29T09:01:27;102142.78;;;17.38;64.55
67099;BME280;54288;53.046;5.668;2023-04-29T09:06:26;102138.47;;;16.67;63.46
67099;BME280;54288;53.046;5.668;2023-04-29T09:08:52;102144.13;;;16.14;64.37
67099;BME280;54288;53.046;5.668;2023-04-29T09:11:18;102139.41;;;16.26;68.20
67099;BME280;54288;53.046;5.668;2023-04-29T09:13:44;102143.53;;;16.76;63.79
67099;BME280;54288;53.046;5.668;2023-04-29T09:16:11;102144.94;;;16.89;65.49
67099;BME280;54288;53.046;5.668;2023-04-29T09:18:48;102149.91;;;16.67;63.00
67099;BME280;54288;53.046;5.668;2023-04-29T09:23:47;102148.84;;;16.74;59.13
67099;BME280;54288;53.046;5.668;2023-04-29T09:26:14;102143.56;;;16.38;60.29
67099;BME280;54288;53.046;5.668;2023-04-29T09:28:41;102152.34;;;16.40;62.61
67099;BME280;54288;53.046;5.668;2023-04-29T09:31:10;102151.94;;;16.91;65.22
67099;BME280;54288;53.046;5.668;2023-04-29T09:36:38;102159.25;;;17.49;63.89
67099;BME280;54288;53.046;5.668;2023-04-29T09:39:24;102173.94;;;17.59;59.52
67099;BME280;54288;53.046;5.668;2023-04-29T09:44:21;102170.16;;;17.98;59.36
67099;BME280;54288;53.046;5.668;2023-04-29T09:47:01;102177.28;;;17.33;56.94
67099;BME280;54288;53.046;5.668;2023-04-29T09:49:38;102166.13;;;17.54;57.65
67099;BME280;54288;53.046;5.668;2023-04-29T09:52:08;102179.06;;;17.65;58.62
67099;BME280;54288;53.046;5.668;2023-04-29T09:54:36;102175.78;;;17.57;54.77
67099;BME280;54288;53.046;5.668;2023-04-29T09:57:04;102178.06;;;17.99;54.29
67099;BME280;54288;53.046;5.668;2023-04-29T09:59:32;102175.06;;;17.81;55.18
67099;BME280;54288;53.046;5.668;2023-04-29T10:02:01;102176.03;;;17.78;55.25
67099;BME280;54288;53.046;5.668;2023-04-29T10:04:34;102170.19;;;17.35;52.66
67099;BME280;54288;53.046;5.668;2023-04-29T10:07:03;102175.06;;;17.50;57.25
67099;BME280;54288;53.046;5.668;2023-04-29T10:09:30;102182.19;;;17.80;57.04
67099;BME280;54288;53.046;5.668;2023-04-29T10:11:56;102187.47;;;17.50;51.89
67099;BME280;54288;53.046;5.668;2023-04-29T10:14:23;102190.25;;;17.10;56.62
67099;BME280;54288;53.046;5.668;2023-04-29T10:17:02;102194.84;;;17.37;54.96
67099;BME280;54288;53.046;5.668;2023-04-29T10:19:46;102200.25;;;17.95;49.24
67099;BME280;54288;53.046;5.668;2023-04-29T10:22:24;102198.72;;;17.88;48.55
67099;BME280;54288;53.046;5.668;2023-04-29T10:24:54;102190.31;;;17.74;50.87
67099;BME280;54288;53.046;5.668;2023-04-29T10:27:23;102186.16;;;17.31;48.85
67099;BME280;54288;53.046;5.668;2023-04-29T10:29:52;102175.16;;;17.47;51.01
67099;BME280;54288;53.046;5.668;2023-04-29T10:32:21;102187.94;;;17.64;50.04
67099;BME280;54288;53.046;5.668;2023-04-29T10:34:51;102194.72;;;17.74;48.49
67099;BME280;54288;53.046;5.668;2023-04-29T10:37:22;102196.44;;;17.44;47.38
67099;BME280;54288;53.046;5.668;2023-04-29T10:40:11;102193.16;;;17.33;47.52
67099;BME280;54288;53.046;5.668;2023-04-29T10:45:27;102200.06;;;18.32;46.71
67099;BME280;54288;53.046;5.668;2023-04-29T10:53:15;102200.16;;;18.84;47.87
67099;BME280;54288;53.046;5.668;2023-04-29T10:55:46;102198.28;;;18.60;49.12
67099;BME280;54288;53.046;5.668;2023-04-29T10:58:36;102199.69;;;18.44;48.63
67099;BME280;54288;53.046;5.668;2023-04-29T11:01:03;102193.56;;;18.69;47.54
67099;BME280;54288;53.046;5.668;2023-04-29T11:04:00;102203.50;;;18.05;46.21
67099;BME280;54288;53.046;5.668;2023-04-29T11:09:03;102199.75;;;18.70;45.32
67099;BME280;54288;53.046;5.668;2023-04-29T11:11:45;102193.22;;;18.80;45.35
67099;BME280;54288;53.046;5.668;2023-04-29T11:14:13;102208.88;;;18.61;40.58
67099;BME280;54288;53.046;5.668;2023-04-29T11:16:47;102207.75;;;18.41;42.75
67099;BME280;54288;53.046;5.668;2023-04-29T11:19:15;102202.28;;;18.73;45.93
67099;BME280;54288;53.046;5.668;2023-04-29T11:21:44;102197.69;;;18.78;46.19
67099;BME280;54288;53.046;5.668;2023-04-29T11:24:12;102202.00;;;18.82;42.97
67099;BME280;54288;53.046;5.668;2023-04-29T11:26:40;102199.16;;;18.02;42.13
67099;BME280;54288;53.046;5.668;2023-04-29T11:29:08;102210.97;;;17.92;47.84
67099;BME280;54288;53.046;5.668;2023-04-29T11:31:37;102206.25;;;18.31;45.00
67099;BME280;54288;53.046;5.668;2023-04-29T11:34:04;102211.56;;;18.32;49.93
67099;BME280;54288;53.046;5.668;2023-04-29T11:36:31;102204.13;;;18.71;48.98
67099;BME280;54288;53.046;5.668;2023-04-29T11:38:59;102204.03;;;18.46;46.97
67099;BME280;54288;53.046;5.668;2023-04-29T11:41:26;102211.94;;;17.90;45.76
67099;BME280;54288;53.046;5.668;2023-04-29T11:43:55;102216.31;;;18.20;50.48
67099;BME280;54288;53.046;5.668;2023-04-29T11:46:24;102210.06;;;18.22;46.02
67099;BME280;54288;53.046;5.668;2023-04-29T11:48:53;102207.91;;;18.64;48.27
67099;BME280;54288;53.046;5.668;2023-04-29T11:51:19;102210.13;;;18.77;44.23
67099;BME280;54288;53.046;5.668;2023-04-29T11:53:45;102219.00;;;18.18;45.19
67099;BME280;54288;53.046;5.668;2023-04-29T11:56:11;102211.84;;;18.51;42.09
67099;BME280;54288;53.046;5.668;2023-04-29T11:58:37;102217.53;;;18.39;43.73
67099;BME280;54288;53.046;5.668;2023-04-29T12:01:04;102216.13;;;18.26;46.25
67099;BME280;54288;53.046;5.668;2023-04-29T12:03:31;102213.53;;;18.53;46.27
67099;BME280;54288;53.046;5.668;2023-04-29T12:05:57;102217.50;;;18.10;47.25
67099;BME280;54288;53.046;5.668;2023-04-29T12:08:25;102216.50;;;18.14;44.86
67099;BME280;54288;53.046;5.668;2023-04-29T12:10:53;102219.31;;;18.09;42.86
67099;BME280;54288;53.046;5.668;2023-04-29T12:13:22;102212.75;;;18.21;44.09
67099;BME280;54288;53.046;5.668;2023-04-29T12:15:49;102212.41;;;18.33;42.15
67099;BME280;54288;53.046;5.668;2023-04-29T12:18:19;102207.59;;;18.45;41.13
67099;BME280;54288;53.046;5.668;2023-04-29T12:20:48;102215.69;;;18.12;44.32
67099;BME280;54288;53.046;5.668;2023-04-29T12:23:20;102213.34;;;18.32;38.32
67099;BME280;54288;53.046;5.668;2023-04-29T12:25:55;102218.59;;;18.33;40.48
67099;BME280;54288;53.046;5.668;2023-04-29T12:28:21;102228.81;;;18.45;38.69
67099;BME280;54288;53.046;5.668;2023-04-29T12:30:49;102222.63;;;18.45;40.45
67099;BME280;54288;53.046;5.668;2023-04-29T12:33:23;102221.59;;;18.50;42.69
67099;BME280;54288;53.046;5.668;2023-04-29T12:35:53;102220.78;;;19.02;40.64
67099;BME280;54288;53.046;5.668;2023-04-29T12:38:25;102216.78;;;18.89;39.16
67099;BME280;54288;53.046;5.668;2023-04-29T12:40:54;102213.53;;;18.81;40.84
67099;BME280;54288;53.046;5.668;2023-04-29T12:43:28;102218.69;;;18.85;39.47
67099;BME280;54288;53.046;5.668;2023-04-29T12:45:59;102222.63;;;18.45;40.17
67099;BME280;54288;53.046;5.668;2023-04-29T12:48:31;102233.72;;;18.30;42.52
67099;BME280;54288;53.046;5.668;2023-04-29T12:51:04;102218.38;;;18.41;42.79
67099;BME280;54288;53.046;5.668;2023-04-29T12:56:12;102239.03;;;18.28;40.56
67099;BME280;54288;53.046;5.668;2023-04-29T12:58:38;102237.28;;;18.29;42.00
67099;BME280;54288;53.046;5.668;2023-04-29T13:01:04;102232.84;;;18.28;40.07
67099;BME280;54288;53.046;5.668;2023-04-29T13:03:30;102232.72;;;18.63;42.41
67099;BME280;54288;53.046;5.668;2023-04-29T13:05:56;102234.53;;;18.61;43.68
67099;BME280;54288;53.046;5.668;2023-04-29T13:08:23;102230.09;;;18.87;41.56
67099;BME280;54288;53.046;5.668;2023-04-29T13:10:49;102230.00;;;19.16;42.96
67099;BME280;54288;53.046;5.668;2023-04-29T13:13:15;102235.59;;;19.35;41.31
67099;BME280;54288;53.046;5.668;2023-04-29T13:15:41;102239.63;;;19.20;42.74
67099;BME280;54288;53.046;5.668;2023-04-29T13:18:06;102235.31;;;19.44;41.53
67099;BME280;54288;53.046;5.668;2023-04-29T13:20:32;102241.88;;;19.06;41.75
67099;BME280;54288;53.046;5.668;2023-04-29T13:22:58;102246.75;;;19.20;44.34
67099;BME280;54288;53.046;5.668;2023-04-29T13:25:24;102253.94;;;18.63;41.50
67099;BME280;54288;53.046;5.668;2023-04-29T13:27:49;102247.31;;;18.76;44.97
67099;BME280;54288;53.046;5.668;2023-04-29T13:30:15;102252.97;;;18.93;44.26
67099;BME280;54288;53.046;5.668;2023-04-29T13:32:41;102247.28;;;19.03;43.20
67099;BME280;54288;53.046;5.668;2023-04-29T13:35:07;102265.25;;;18.68;40.47